createdAt,value
2018-05-25T00:00:02.964Z,28.87
2018-05-25T00:02:29.804Z,30.60
2018-05-25T00:04:56.736Z,31.27
2018-05-25T00:07:23.649Z,29.33
2018-05-25T00:09:50.517Z,29.13
2018-05-25T00:12:18.172Z,27.60
2018-05-25T00:14:45.831Z,30.47
2018-05-25T00:17:13.428Z,33.80
2018-05-25T00:19:40.407Z,32.27
2018-05-25T00:22:07.302Z,30.37
2018-05-25T00:24:34.221Z,30.93
2018-05-25T00:27:01.077Z,32.67
2018-05-25T00:29:27.997Z,30.80
2018-05-25T00:31:54.911Z,33.20
2018-05-25T00:34:21.853Z,32.30
2018-05-25T00:36:48.798Z,34.03
2018-05-25T00:39:15.735Z,34.10
2018-05-25T00:41:42.587Z,33.20
2018-05-25T00:44:09.480Z,31.40
2018-05-25T00:46:36.414Z,33.03
2018-05-25T00:49:03.354Z,34.40
2018-05-25T00:51:30.301Z,33.47
2018-05-25T00:53:57.165Z,31.73
2018-05-25T00:56:24.106Z,34.67
2018-05-25T00:58:50.969Z,32.37
2018-05-25T01:01:18.653Z,31.10
2018-05-25T01:03:45.565Z,31.97
2018-05-25T01:06:12.489Z,36.13
2018-05-25T01:08:39.443Z,32.30
2018-05-25T01:11:06.354Z,32.00
2018-05-25T01:13:33.220Z,33.97
2018-05-25T01:16:00.147Z,33.77
2018-05-25T01:18:27.018Z,33.47
2018-05-25T01:20:53.953Z,35.13
2018-05-25T01:23:20.804Z,33.93
2018-05-25T01:25:47.752Z,34.67
2018-05-25T01:28:14.612Z,34.27
2018-05-25T01:30:41.575Z,32.80
2018-05-25T01:33:08.518Z,34.23
2018-05-25T01:35:36.185Z,33.50
2018-05-25T01:38:03.816Z,32.03
2018-05-25T01:40:30.824Z,33.90
2018-05-25T01:42:57.687Z,31.30
2018-05-25T01:45:24.533Z,33.97
2018-05-25T01:47:51.477Z,32.67
2018-05-25T01:50:18.333Z,31.50
2018-05-25T01:52:45.201Z,33.17
2018-05-25T01:55:12.157Z,35.67
2018-05-25T01:57:39.184Z,34.50
2018-05-25T02:00:06.105Z,34.20
2018-05-25T02:02:32.976Z,37.00
2018-05-25T02:04:59.920Z,36.50
2018-05-25T02:07:26.797Z,39.43
2018-05-25T02:09:53.737Z,37.33
2018-05-25T02:12:21.348Z,41.40
2018-05-25T02:14:48.271Z,39.97
2018-05-25T02:17:15.202Z,39.17
2018-05-25T02:19:42.065Z,38.03
2018-05-25T02:22:08.948Z,36.80
2018-05-25T02:24:35.878Z,37.10
2018-05-25T02:27:02.755Z,38.07
2018-05-25T02:29:29.664Z,36.67
2018-05-25T02:31:56.590Z,37.73
2018-05-25T02:34:23.445Z,38.80
2018-05-25T02:36:50.389Z,37.73
2018-05-25T02:39:17.263Z,37.67
2018-05-25T02:41:44.895Z,37.40
2018-05-25T02:44:11.804Z,37.20
2018-05-25T02:46:39.406Z,40.17
2018-05-25T02:49:06.321Z,45.10
2018-05-25T02:51:33.977Z,38.00
2018-05-25T02:54:01.647Z,37.90
2018-05-25T02:56:29.393Z,39.10
2018-05-25T02:58:57.025Z,46.60
2018-05-25T03:01:23.948Z,46.57
2018-05-25T03:03:50.859Z,73.63
2018-05-25T03:06:18.475Z,84.83
2018-05-25T03:08:45.408Z,83.30
2018-05-25T03:11:12.249Z,74.50
2018-05-25T03:13:39.165Z,68.70
2018-05-25T03:16:06.024Z,67.87
2018-05-25T03:18:32.945Z,98.20
2018-05-25T03:20:59.813Z,58.40
2018-05-25T03:23:26.743Z,72.00
2018-05-25T03:25:53.622Z,54.60
2018-05-25T03:28:20.601Z,59.10
2018-05-25T03:30:47.518Z,49.13
2018-05-25T03:33:14.379Z,71.90
2018-05-25T03:35:41.300Z,53.07
2018-05-25T03:38:08.156Z,53.40
2018-05-25T03:40:35.080Z,56.00
2018-05-25T03:43:01.996Z,52.53
2018-05-25T03:45:29.660Z,60.50
2018-05-25T03:47:57.321Z,53.47
2018-05-25T03:50:25.012Z,53.37
2018-05-25T03:52:51.939Z,54.40
2018-05-25T03:55:19.601Z,49.87
2018-05-25T03:57:47.254Z,53.77
2018-05-25T04:00:27.047Z,52.00
2018-05-25T04:02:53.980Z,51.60
2018-05-25T04:05:20.843Z,53.90
2018-05-25T04:07:47.781Z,48.73
2018-05-25T04:10:14.628Z,53.10
2018-05-25T04:12:41.507Z,52.30
2018-05-25T04:15:08.441Z,47.80
2018-05-25T04:17:35.296Z,44.90
2018-05-25T04:20:02.242Z,52.57
2018-05-25T04:22:29.117Z,47.97
2018-05-25T04:24:56.800Z,47.53
2018-05-25T04:27:23.785Z,53.47
2018-05-25T04:29:50.697Z,51.57
2018-05-25T04:32:21.682Z,51.40
2018-05-25T04:34:51.577Z,48.23
2018-05-25T04:37:21.753Z,49.90
2018-05-25T04:39:48.653Z,51.90
2018-05-25T04:42:15.838Z,50.37
2018-05-25T04:44:43.478Z,54.13
2018-05-25T04:47:10.359Z,51.07
2018-05-25T04:49:45.864Z,51.87
2018-05-25T04:54:59.316Z,48.43
2018-05-25T04:57:26.566Z,46.20
2018-05-25T04:59:53.452Z,45.17
2018-05-25T05:02:20.397Z,56.30
2018-05-25T05:04:47.336Z,51.27
2018-05-25T05:07:27.316Z,48.23
2018-05-25T05:09:55.106Z,48.47
2018-05-25T05:12:29.105Z,47.77
2018-05-25T05:15:14.141Z,54.60
2018-05-25T05:17:51.570Z,47.00
2018-05-25T05:20:20.729Z,45.57
2018-05-25T05:23:01.838Z,45.43
2018-05-25T05:25:43.957Z,45.33
2018-05-25T05:28:22.296Z,43.23
2018-05-25T05:33:48.212Z,41.70
2018-05-25T05:36:29.367Z,48.20
2018-05-25T05:39:07.095Z,42.93
2018-05-25T05:44:32.677Z,46.77
2018-05-25T05:47:13.356Z,43.73
2018-05-25T05:49:52.709Z,53.80
2018-05-25T05:52:33.282Z,44.80
2018-05-25T05:55:01.060Z,48.17
2018-05-25T05:57:27.992Z,42.83
2018-05-25T05:59:54.837Z,43.20
2018-05-25T06:02:21.767Z,42.30
2018-05-25T06:04:48.651Z,50.67
2018-05-25T06:07:15.641Z,45.07
2018-05-25T06:09:43.263Z,41.07
2018-05-25T06:12:10.213Z,42.27
2018-05-25T06:14:37.210Z,48.87
2018-05-25T06:17:04.157Z,47.03
2018-05-25T06:19:31.813Z,43.03
2018-05-25T06:21:59.481Z,45.57
2018-05-25T06:24:27.089Z,58.17
2018-05-25T06:26:55.860Z,47.17
2018-05-25T06:29:22.916Z,45.63
2018-05-25T06:31:49.804Z,52.80
2018-05-25T06:34:16.714Z,45.03
2018-05-25T06:36:43.770Z,51.20
2018-05-25T06:39:10.708Z,52.70
2018-05-25T06:41:37.602Z,49.90
2018-05-25T06:44:05.374Z,59.33
2018-05-25T06:46:33.225Z,50.77
2018-05-25T06:49:01.312Z,50.23
2018-05-25T06:51:28.411Z,46.00
2018-05-25T06:53:55.505Z,53.67
2018-05-25T06:56:23.535Z,51.20
2018-05-25T06:58:50.465Z,48.70
2018-05-25T07:01:17.507Z,45.67
2018-05-25T07:03:44.510Z,54.60
2018-05-25T07:06:12.324Z,45.93
2018-05-25T07:08:39.335Z,44.53
2018-05-25T07:11:07.046Z,48.33
2018-05-25T07:13:41.600Z,46.33
2018-05-25T07:16:09.356Z,43.80
2018-05-25T07:18:36.323Z,44.30
2018-05-25T07:21:03.320Z,46.80
2018-05-25T07:23:30.409Z,42.50
2018-05-25T07:25:57.422Z,45.40
2018-05-25T07:28:24.381Z,46.97
2018-05-25T07:30:51.507Z,43.73
2018-05-25T07:33:18.549Z,41.43
2018-05-25T07:35:45.613Z,41.70
2018-05-25T07:38:12.513Z,37.40
2018-05-25T07:40:40.250Z,39.53
2018-05-25T07:43:07.274Z,37.27
2018-05-25T07:45:34.257Z,40.90
2018-05-25T07:48:01.310Z,40.33
2018-05-25T07:50:29.222Z,38.40
2018-05-25T07:53:03.138Z,37.50
2018-05-25T07:55:30.149Z,36.37
2018-05-25T07:57:57.785Z,36.80
2018-05-25T08:00:24.775Z,35.10
2018-05-25T08:02:51.770Z,35.03
2018-05-25T08:05:18.712Z,34.73
2018-05-25T08:07:45.742Z,36.63
2018-05-25T08:10:12.628Z,43.13
2018-05-25T08:12:39.580Z,40.13
2018-05-25T08:15:07.198Z,38.77
2018-05-25T08:17:34.168Z,36.07
2018-05-25T08:20:01.071Z,39.20
2018-05-25T08:22:27.952Z,39.77
2018-05-25T08:24:54.897Z,34.13
2018-05-25T08:27:21.850Z,34.27
2018-05-25T08:29:48.810Z,33.50
2018-05-25T08:32:15.677Z,36.00
2018-05-25T08:34:43.467Z,32.47
2018-05-25T08:37:10.406Z,34.30
2018-05-25T08:39:37.281Z,33.43
2018-05-25T08:42:04.314Z,28.77
2018-05-25T08:44:31.266Z,33.10
2018-05-25T08:46:58.157Z,34.60
2018-05-25T08:49:25.128Z,35.50
2018-05-25T08:51:52.051Z,32.83
2018-05-25T08:54:19.711Z,36.10
2018-05-25T08:56:46.692Z,35.13
2018-05-25T08:59:15.684Z,34.87
2018-05-25T09:01:44.476Z,33.70
2018-05-25T09:07:10.885Z,39.50
2018-05-25T09:09:47.567Z,39.37
2018-05-25T09:12:26.085Z,38.57
2018-05-25T09:15:07.500Z,35.07
2018-05-25T09:17:34.925Z,34.07
2018-05-25T09:20:01.790Z,39.03
2018-05-25T09:22:29.466Z,39.97
2018-05-25T09:24:56.350Z,42.50
2018-05-25T09:27:23.286Z,38.53
2018-05-25T09:29:50.149Z,40.10
2018-05-25T09:32:17.083Z,40.80
2018-05-25T09:34:44.001Z,44.03
2018-05-25T09:37:10.954Z,38.87
2018-05-25T09:39:38.024Z,40.80
2018-05-25T09:42:04.968Z,38.63
2018-05-25T09:44:31.845Z,42.30
2018-05-25T09:46:58.793Z,37.73
2018-05-25T09:49:25.740Z,35.80
2018-05-25T09:51:52.677Z,33.77
2018-05-25T09:56:59.256Z,37.77
2018-05-25T09:59:26.235Z,36.17
2018-05-25T10:01:53.201Z,37.80
2018-05-25T10:04:20.918Z,37.47
2018-05-25T10:06:47.869Z,35.77
2018-05-25T10:09:14.781Z,34.53
2018-05-25T10:11:41.732Z,36.70
2018-05-25T10:16:42.095Z,33.73
2018-05-25T10:19:09.041Z,29.80
2018-05-25T10:21:35.939Z,38.50
2018-05-25T10:24:02.981Z,32.37
2018-05-25T10:26:30.613Z,34.60
2018-05-25T10:28:57.561Z,29.03
2018-05-25T10:31:24.509Z,35.13
2018-05-25T10:33:51.377Z,28.87
2018-05-25T10:36:19.061Z,37.43
2018-05-25T10:38:46.005Z,31.60
2018-05-25T10:41:12.966Z,32.20
2018-05-25T10:43:39.852Z,30.97
2018-05-25T10:46:06.785Z,32.87
2018-05-25T10:48:33.705Z,28.43
2018-05-25T10:51:00.893Z,29.27
2018-05-25T10:53:27.797Z,30.43
2018-05-25T10:55:54.784Z,25.60
2018-05-25T10:58:21.736Z,26.13
2018-05-25T11:00:48.620Z,28.00
2018-05-25T11:03:15.565Z,29.77
2018-05-25T11:05:43.257Z,26.87
2018-05-25T11:08:10.133Z,22.10
2018-05-25T11:10:37.071Z,22.73
2018-05-25T11:13:04.094Z,23.60
2018-05-25T11:15:31.017Z,22.60
2018-05-25T11:17:57.967Z,22.33
2018-05-25T11:20:24.853Z,22.93
2018-05-25T11:22:51.822Z,28.13
2018-05-25T11:25:18.697Z,21.40
2018-05-25T11:27:45.774Z,22.57
2018-05-25T11:30:13.732Z,19.53
2018-05-25T11:32:40.684Z,18.80
2018-05-25T11:35:07.646Z,19.83
2018-05-25T11:37:34.656Z,19.37
2018-05-25T11:40:01.617Z,20.00
2018-05-25T11:42:28.550Z,22.00
2018-05-25T11:44:55.528Z,22.93
2018-05-25T11:47:22.441Z,23.47
2018-05-25T11:49:49.333Z,20.53
2018-05-25T11:52:16.309Z,20.63
2018-05-25T11:54:43.173Z,20.40
2018-05-25T11:57:10.858Z,20.30
2018-05-25T11:59:37.754Z,16.97
2018-05-25T12:02:05.625Z,16.30
2018-05-25T12:04:33.489Z,16.20
2018-05-25T12:07:00.393Z,14.30
2018-05-25T12:09:27.321Z,13.00
2018-05-25T12:11:54.446Z,13.93
2018-05-25T12:14:21.513Z,15.90
2018-05-25T12:16:49.676Z,26.43
2018-05-25T12:19:23.712Z,14.47
2018-05-25T12:21:50.600Z,11.93
2018-05-25T12:24:17.632Z,13.30
2018-05-25T12:26:45.428Z,14.73
2018-05-25T12:29:15.814Z,13.47
2018-05-25T12:31:47.858Z,13.60
2018-05-25T12:34:28.460Z,13.43
2018-05-25T12:39:47.343Z,11.43
2018-05-25T12:42:14.321Z,9.40
2018-05-25T12:44:57.951Z,9.00
2018-05-25T12:47:25.776Z,10.33
2018-05-25T12:49:54.069Z,10.33
2018-05-25T12:52:22.624Z,10.50
2018-05-25T12:55:01.187Z,10.10
2018-05-25T12:57:28.228Z,9.33
2018-05-25T12:59:57.140Z,8.43
2018-05-25T13:02:26.399Z,7.73
2018-05-25T13:04:56.470Z,8.23
2018-05-25T13:07:25.745Z,8.30
2018-05-25T13:09:52.744Z,8.20
2018-05-25T13:12:20.841Z,8.00
2018-05-25T13:14:49.066Z,7.77
2018-05-25T13:17:16.759Z,7.30
2018-05-25T13:19:45.268Z,7.40
2018-05-25T13:22:18.589Z,7.47
2018-05-25T13:24:46.579Z,7.20
2018-05-25T13:27:14.645Z,7.90
2018-05-25T13:29:43.288Z,7.97
2018-05-25T13:32:14.646Z,7.17
2018-05-25T13:34:42.966Z,7.90
2018-05-25T13:37:10.117Z,6.63
2018-05-25T13:39:38.014Z,6.97
2018-05-25T13:42:07.262Z,7.20
2018-05-25T13:44:34.996Z,7.37
2018-05-25T13:47:02.005Z,7.00
2018-05-25T13:49:40.212Z,8.07
2018-05-25T13:52:09.940Z,7.97
2018-05-25T13:54:37.248Z,9.27
2018-05-25T13:57:05.787Z,8.30
2018-05-25T13:59:34.365Z,8.53
2018-05-25T14:02:01.684Z,9.50
2018-05-25T14:04:33.397Z,9.20
2018-05-25T14:07:02.993Z,10.03
2018-05-25T14:09:32.499Z,10.07
2018-05-25T14:12:00.489Z,9.00
2018-05-25T14:17:25.300Z,8.10
2018-05-25T14:19:52.945Z,8.30
2018-05-25T14:22:20.570Z,9.73
2018-05-25T14:24:47.671Z,8.53
2018-05-25T14:27:14.617Z,7.50
2018-05-25T14:29:44.167Z,8.70
2018-05-25T14:32:11.295Z,7.00
2018-05-25T14:34:42.329Z,7.50
2018-05-25T14:37:10.726Z,7.37
2018-05-25T14:39:47.322Z,6.50
2018-05-25T14:42:26.178Z,6.67
2018-05-25T14:47:38.565Z,5.40
2018-05-25T14:50:05.484Z,6.43
2018-05-25T14:52:32.459Z,6.27
2018-05-25T14:55:00.629Z,5.73
2018-05-25T14:57:27.974Z,6.60
2018-05-25T14:59:55.104Z,5.73
2018-05-25T15:02:22.051Z,6.50
2018-05-25T15:04:49.019Z,5.80
2018-05-25T15:07:15.889Z,5.13
2018-05-25T15:09:43.057Z,7.03
2018-05-25T15:12:13.191Z,6.97
2018-05-25T15:14:41.257Z,8.80
2018-05-25T15:17:08.448Z,7.43
2018-05-25T15:19:35.906Z,9.23
2018-05-25T15:22:04.386Z,9.70
2018-05-25T15:24:31.486Z,8.67
2018-05-25T15:26:59.360Z,8.23
2018-05-25T15:29:27.068Z,9.20
2018-05-25T15:31:54.113Z,8.37
2018-05-25T15:34:21.157Z,8.30
2018-05-25T15:36:48.170Z,9.47
2018-05-25T15:39:15.118Z,9.73
2018-05-25T15:41:42.816Z,10.73
2018-05-25T15:44:09.684Z,10.07
2018-05-25T15:46:36.580Z,9.73
2018-05-25T15:49:03.577Z,10.43
2018-05-25T15:51:30.444Z,9.43
2018-05-25T15:53:57.302Z,10.00
2018-05-25T15:56:24.238Z,10.80
2018-05-25T15:58:51.181Z,9.53
2018-05-25T16:01:18.147Z,9.40
2018-05-25T16:03:45.028Z,11.17
2018-05-25T16:06:24.024Z,9.20
2018-05-25T16:08:51.776Z,8.20
2018-05-25T16:11:18.747Z,8.60
2018-05-25T16:13:53.890Z,8.10
2018-05-25T16:16:20.764Z,9.07
2018-05-25T16:18:56.291Z,8.23
2018-05-25T16:21:24.255Z,8.77
2018-05-25T16:23:56.437Z,7.87
2018-05-25T16:26:24.613Z,7.10
2018-05-25T16:28:53.822Z,8.07
2018-05-25T16:31:23.208Z,9.00
2018-05-25T16:33:50.158Z,8.00
2018-05-25T16:36:17.050Z,18.30
2018-05-25T16:38:44.740Z,10.03
2018-05-25T16:41:12.361Z,8.40
2018-05-25T16:43:39.321Z,9.07
2018-05-25T16:46:06.227Z,8.80
2018-05-25T16:48:33.215Z,8.87
2018-05-25T16:51:00.098Z,12.10
2018-05-25T16:53:27.034Z,10.47
2018-05-25T16:55:54.687Z,9.37
2018-05-25T16:58:23.940Z,8.77
2018-05-25T17:00:51.107Z,9.40
2018-05-25T17:03:18.021Z,10.33
2018-05-25T17:05:44.904Z,10.10
2018-05-25T17:08:11.922Z,9.40
2018-05-25T17:10:38.871Z,9.10
2018-05-25T17:13:05.826Z,9.47
2018-05-25T17:15:32.751Z,8.73
2018-05-25T17:17:59.617Z,7.20
2018-05-25T17:20:26.552Z,6.87
2018-05-25T17:22:53.434Z,6.80
2018-05-25T17:25:20.412Z,7.20
2018-05-25T17:27:47.315Z,7.17
2018-05-25T17:30:14.231Z,8.17
2018-05-25T17:32:41.181Z,7.50
2018-05-25T17:35:08.090Z,8.10
2018-05-25T17:37:35.750Z,7.90
2018-05-25T17:40:03.477Z,8.20
2018-05-25T17:42:30.429Z,7.97
2018-05-25T17:44:57.286Z,7.87
2018-05-25T17:47:24.316Z,7.97
2018-05-25T17:49:51.178Z,8.33
2018-05-25T17:52:18.118Z,8.93
2018-05-25T17:54:44.985Z,8.10
2018-05-25T17:57:12.664Z,7.03
2018-05-25T17:59:39.531Z,8.87
2018-05-25T18:02:06.453Z,8.07
2018-05-25T18:04:33.413Z,7.80
2018-05-25T18:07:00.310Z,7.07
2018-05-25T18:09:27.329Z,7.03
2018-05-25T18:11:54.426Z,7.03
2018-05-25T18:14:22.139Z,7.17
2018-05-25T18:16:49.005Z,7.83
2018-05-25T18:19:15.970Z,7.67
2018-05-25T18:21:43.680Z,7.50
2018-05-25T18:24:10.651Z,7.73
2018-05-25T18:26:37.505Z,8.47
2018-05-25T18:29:04.384Z,7.63
2018-05-25T18:31:32.028Z,7.53
2018-05-25T18:33:58.950Z,7.87
2018-05-25T18:36:25.900Z,8.47
2018-05-25T18:38:52.752Z,8.33
2018-05-25T18:41:19.660Z,8.13
2018-05-25T18:43:46.602Z,8.60
2018-05-25T18:46:13.473Z,8.20
2018-05-25T18:48:40.417Z,8.23
2018-05-25T18:51:07.295Z,8.07
2018-05-25T18:53:34.209Z,8.03
2018-05-25T18:56:01.145Z,8.33
2018-05-25T18:58:28.030Z,7.47
2018-05-25T19:00:54.957Z,7.73
2018-05-25T19:03:21.825Z,8.13
2018-05-25T19:05:48.822Z,10.47
2018-05-25T19:08:15.699Z,10.60
2018-05-25T19:10:42.607Z,10.93
2018-05-25T19:13:09.590Z,9.77
2018-05-25T19:15:36.512Z,8.90
2018-05-25T19:18:03.454Z,8.97
2018-05-25T19:20:30.436Z,10.10
2018-05-25T19:22:57.312Z,8.20
2018-05-25T19:25:24.181Z,9.00
2018-05-25T19:27:51.232Z,8.57
2018-05-25T19:30:18.176Z,8.17
2018-05-25T19:32:45.128Z,9.30
2018-05-25T19:35:11.991Z,9.10
2018-05-25T19:37:38.912Z,9.43
2018-05-25T19:40:05.827Z,8.33
2018-05-25T19:42:33.541Z,8.70
2018-05-25T19:45:00.396Z,7.63
2018-05-25T19:47:27.342Z,8.90
2018-05-25T19:49:54.184Z,9.73
2018-05-25T19:52:21.112Z,8.80
2018-05-25T19:54:48.030Z,8.83
2018-05-25T19:57:15.038Z,8.00
2018-05-25T19:59:42.021Z,8.17
2018-05-25T20:02:08.993Z,6.93
2018-05-25T20:04:35.863Z,7.53
2018-05-25T20:07:03.596Z,8.57
2018-05-25T20:09:30.490Z,15.50
2018-05-25T20:11:58.178Z,8.23
2018-05-25T20:14:25.923Z,9.47
2018-05-25T20:16:52.841Z,9.37
2018-05-25T20:19:19.824Z,10.27
2018-05-25T20:21:47.454Z,10.50
2018-05-25T20:24:15.084Z,9.40
2018-05-25T20:26:42.013Z,11.07
2018-05-25T20:29:08.890Z,11.33
2018-05-25T20:31:35.874Z,11.90
2018-05-25T20:34:02.802Z,11.43
2018-05-25T20:36:29.745Z,10.97
2018-05-25T20:38:56.685Z,11.90
2018-05-25T20:41:23.680Z,9.30
2018-05-25T20:43:51.302Z,8.87
2018-05-25T20:46:18.281Z,11.63
2018-05-25T20:48:45.996Z,9.27
2018-05-25T20:51:12.887Z,10.40
2018-05-25T20:53:40.588Z,11.17
2018-05-25T20:56:07.561Z,41.67
2018-05-25T20:58:34.503Z,12.00
2018-05-25T21:01:01.450Z,10.27
2018-05-25T21:03:28.360Z,10.93
2018-05-25T21:05:55.309Z,12.00
2018-05-25T21:08:22.176Z,11.67
2018-05-25T21:10:49.164Z,11.27
2018-05-25T21:13:16.206Z,12.33
2018-05-25T21:15:43.106Z,11.97
2018-05-25T21:18:10.024Z,14.30
2018-05-25T21:20:38.580Z,11.40
2018-05-25T21:23:05.482Z,12.23
2018-05-25T21:25:32.439Z,13.30
2018-05-25T21:28:00.087Z,12.63
2018-05-25T21:30:28.540Z,12.00
2018-05-25T21:32:56.574Z,12.27
2018-05-25T21:35:23.521Z,12.77
2018-05-25T21:37:50.498Z,12.07
2018-05-25T21:40:18.124Z,11.03
2018-05-25T21:42:45.141Z,11.33
2018-05-25T21:45:12.072Z,11.30
2018-05-25T21:47:38.964Z,12.57
2018-05-25T21:50:05.913Z,11.10
2018-05-25T21:52:32.774Z,11.67
2018-05-25T21:54:59.709Z,10.60
2018-05-25T21:57:29.879Z,67.13
2018-05-25T21:59:56.844Z,12.20
2018-05-25T22:02:25.299Z,11.53
2018-05-25T22:04:52.249Z,11.00
2018-05-25T22:07:19.188Z,11.30
2018-05-25T22:09:50.007Z,11.57
2018-05-25T22:12:18.691Z,12.23
2018-05-25T22:14:46.475Z,14.40
2018-05-25T22:17:14.776Z,14.30
2018-05-25T22:19:43.277Z,15.80
2018-05-25T22:22:13.144Z,15.37
2018-05-25T22:24:43.099Z,14.17
2018-05-25T22:27:10.344Z,16.33
2018-05-25T22:29:42.522Z,15.53
2018-05-25T22:32:13.343Z,15.20
2018-05-25T22:34:40.528Z,15.63
2018-05-25T22:37:08.143Z,15.93
2018-05-25T22:39:36.763Z,17.30
2018-05-25T22:42:04.079Z,16.17
2018-05-25T22:44:43.092Z,17.17
2018-05-25T22:47:22.877Z,16.10
2018-05-25T22:50:01.867Z,17.07
2018-05-25T22:52:35.022Z,15.57
2018-05-25T22:55:02.025Z,17.50
2018-05-25T22:57:29.618Z,17.33
2018-05-25T22:59:56.604Z,16.23
2018-05-25T23:02:23.513Z,17.67
2018-05-25T23:04:50.524Z,18.93
2018-05-25T23:07:18.120Z,21.30
2018-05-25T23:09:45.132Z,19.57
2018-05-25T23:12:12.794Z,18.67
2018-05-25T23:14:39.633Z,18.17
2018-05-25T23:17:07.298Z,17.50
2018-05-25T23:19:34.888Z,17.10
2018-05-25T23:22:01.737Z,17.50
2018-05-25T23:24:28.653Z,16.80
2018-05-25T23:26:56.306Z,15.07
2018-05-25T23:29:23.228Z,14.73
2018-05-25T23:31:50.153Z,15.87
2018-05-25T23:34:17.001Z,16.77
2018-05-25T23:36:43.857Z,16.27
2018-05-25T23:39:10.805Z,16.10
2018-05-25T23:41:37.651Z,15.67
2018-05-25T23:44:04.578Z,14.20
2018-05-25T23:46:31.431Z,13.77
2018-05-25T23:48:58.333Z,14.40
2018-05-25T23:51:25.913Z,13.63
2018-05-25T23:53:52.815Z,13.57
2018-05-25T23:56:19.722Z,15.83
2018-05-25T23:58:46.628Z,14.23
